sensor_id;sensor_type;location;lat;lon;timestamp;temperature;humidity
23395;DHT22;11870;53.084;18.206;2023-03-01T00:01:30;-5.10;99.90
23395;DHT22;11870;53.084;18.206;2023-03-01T00:03:57;-5.20;99.90
23395;DHT22;11870;53.084;18.206;2023-03-01T00:06:24;-5.20;99.90
23395;DHT22;11870;53.084;18.206;2023-03-01T00:08:50;-5.20;99.90
23395;DHT22;11870;53.084;18.206;2023-03-01T00:11:23;-5.30;99.90
23395;DHT22;11870;53.084;18.206;2023-03-01T00:13:51;-5.30;99.90
23395;DHT22;11870;53.084;18.206;2023-03-01T00:16:26;-5.30;99.90
23395;DHT22;11870;53.084;18.206;2023-03-01T00:18:56;-5.30;99.90
23395;DHT22;11870;53.084;18.206;2023-03-01T00:21:23;-5.30;99.90
23395;DHT22;11870;53.084;18.206;2023-03-01T00:23:50;-5.30;99.90
23395;DHT22;11870;53.084;18.206;2023-03-01T00:26:17;-5.30;99.90
23395;DHT22;11870;53.084;18.206;2023-03-01T00:28:44;-5.30;99.90
23395;DHT22;11870;53.084;18.206;2023-03-01T00:31:16;-5.40;99.90
23395;DHT22;11870;53.084;18.206;2023-03-01T00:33:43;-5.40;99.90
23395;DHT22;11870;53.084;18.206;2023-03-01T00:36:11;-5.40;99.90
23395;DHT22;11870;53.084;18.206;2023-03-01T00:38:38;-5.40;99.90
23395;DHT22;11870;53.084;18.206;2023-03-01T00:41:10;-5.50;99.90
23395;DHT22;11870;53.084;18.206;2023-03-01T00:43:36;-5.50;99.90
23395;DHT22;11870;53.084;18.206;2023-03-01T00:46:14;-5.50;99.90
23395;DHT22;11870;53.084;18.206;2023-03-01T00:48:40;-5.50;99.90
23395;DHT22;11870;53.084;18.206;2023-03-01T00:51:12;-5.60;99.90
23395;DHT22;11870;53.084;18.206;2023-03-01T00:53:39;-5.60;99.90
23395;DHT22;11870;53.084;18.206;2023-03-01T00:56:07;-5.60;99.90
23395;DHT22;11870;53.084;18.206;2023-03-01T00:58:33;-5.60;99.90
23395;DHT22;11870;53.084;18.206;2023-03-01T01:01:00;-5.60;99.90
23395;DHT22;11870;53.084;18.206;2023-03-01T01:03:26;-5.60;99.90
23395;DHT22;11870;53.084;18.206;2023-03-01T01:05:53;-5.60;99.90
23395;DHT22;11870;53.084;18.206;2023-03-01T01:08:19;-5.70;99.90
23395;DHT22;11870;53.084;18.206;2023-03-01T01:10:46;-5.70;99.90
23395;DHT22;11870;53.084;18.206;2023-03-01T01:13:13;-5.60;99.90
23395;DHT22;11870;53.084;18.206;2023-03-01T01:15:39;-5.60;99.90
23395;DHT22;11870;53.084;18.206;2023-03-01T01:18:05;-5.60;99.90
23395;DHT22;11870;53.084;18.206;2023-03-01T01:20:32;-5.60;99.90
23395;DHT22;11870;53.084;18.206;2023-03-01T01:22:58;-5.60;99.90
23395;DHT22;11870;53.084;18.206;2023-03-01T01:25:24;-5.60;99.90
23395;DHT22;11870;53.084;18.206;2023-03-01T01:27:52;-5.50;99.90
23395;DHT22;11870;53.084;18.206;2023-03-01T01:30:19;-5.60;99.90
23395;DHT22;11870;53.084;18.206;2023-03-01T01:32:44;-5.60;99.90
23395;DHT22;11870;53.084;18.206;2023-03-01T01:35:10;-5.50;99.90
23395;DHT22;11870;53.084;18.206;2023-03-01T01:37:36;-5.50;99.90
23395;DHT22;11870;53.084;18.206;2023-03-01T01:40:03;-5.60;99.90
23395;DHT22;11870;53.084;18.206;2023-03-01T01:42:32;-5.60;99.90
23395;DHT22;11870;53.084;18.206;2023-03-01T01:45:33;-5.50;99.90
23395;DHT22;11870;53.084;18.206;2023-03-01T01:48:10;-5.50;99.90
23395;DHT22;11870;53.084;18.206;2023-03-01T01:50:39;-5.40;99.90
23395;DHT22;11870;53.084;18.206;2023-03-01T01:53:17;-5.30;99.90
23395;DHT22;11870;53.084;18.206;2023-03-01T01:55:53;-5.40;99.90
23395;DHT22;11870;53.084;18.206;2023-03-01T01:58:21;-5.40;99.90
23395;DHT22;11870;53.084;18.206;2023-03-01T02:00:48;-5.30;99.90
23395;DHT22;11870;53.084;18.206;2023-03-01T02:03:19;-5.30;99.90
23395;DHT22;11870;53.084;18.206;2023-03-01T02:05:54;-5.20;99.90
23395;DHT22;11870;53.084;18.206;2023-03-01T02:08:22;-5.20;99.90
23395;DHT22;11870;53.084;18.206;2023-03-01T02:10:50;-5.20;99.90
23395;DHT22;11870;53.084;18.206;2023-03-01T02:13:17;-5.20;99.90
23395;DHT22;11870;53.084;18.206;2023-03-01T02:15:43;-5.20;99.90
23395;DHT22;11870;53.084;18.206;2023-03-01T02:18:12;-5.30;99.90
23395;DHT22;11870;53.084;18.206;2023-03-01T02:23:08;-5.30;99.90
23395;DHT22;11870;53.084;18.206;2023-03-01T02:28:24;-5.30;99.90
23395;DHT22;11870;53.084;18.206;2023-03-01T02:30:50;-5.20;99.90
23395;DHT22;11870;53.084;18.206;2023-03-01T02:33:37;-5.20;99.90
23395;DHT22;11870;53.084;18.206;2023-03-01T02:36:07;-5.20;99.90
23395;DHT22;11870;53.084;18.206;2023-03-01T02:38:33;-5.20;99.90
23395;DHT22;11870;53.084;18.206;2023-03-01T02:41:01;-5.20;99.90
23395;DHT22;11870;53.084;18.206;2023-03-01T02:43:31;-5.30;99.90
23395;DHT22;11870;53.084;18.206;2023-03-01T02:46:03;-5.30;99.90
23395;DHT22;11870;53.084;18.206;2023-03-01T02:48:45;-5.30;99.90
23395;DHT22;11870;53.084;18.206;2023-03-01T02:51:16;-5.30;99.90
23395;DHT22;11870;53.084;18.206;2023-03-01T02:56:28;-5.30;99.90
23395;DHT22;11870;53.084;18.206;2023-03-01T02:58:55;-5.30;99.90
23395;DHT22;11870;53.084;18.206;2023-03-01T03:01:27;-5.30;99.90
23395;DHT22;11870;53.084;18.206;2023-03-01T03:04:08;-5.30;99.90
23395;DHT22;11870;53.084;18.206;2023-03-01T03:06:36;-5.30;99.90
23395;DHT22;11870;53.084;18.206;2023-03-01T03:09:03;-5.30;99.90
23395;DHT22;11870;53.084;18.206;2023-03-01T03:11:30;-5.30;99.90
23395;DHT22;11870;53.084;18.206;2023-03-01T03:13:56;-5.30;99.90
23395;DHT22;11870;53.084;18.206;2023-03-01T03:16:23;-5.30;99.90
23395;DHT22;11870;53.084;18.206;2023-03-01T03:18:50;-5.30;99.90
23395;DHT22;11870;53.084;18.206;2023-03-01T03:21:16;-5.30;99.90
23395;DHT22;11870;53.084;18.206;2023-03-01T03:23:43;-5.30;99.90
23395;DHT22;11870;53.084;18.206;2023-03-01T03:26:09;-5.30;99.90
23395;DHT22;11870;53.084;18.206;2023-03-01T03:28:39;-5.20;99.90
23395;DHT22;11870;53.084;18.206;2023-03-01T03:31:07;-5.20;99.90
23395;DHT22;11870;53.084;18.206;2023-03-01T03:33:33;-5.20;99.90
23395;DHT22;11870;53.084;18.206;2023-03-01T03:35:59;-5.20;99.90
23395;DHT22;11870;53.084;18.206;2023-03-01T03:38:25;-5.20;99.90
23395;DHT22;11870;53.084;18.206;2023-03-01T03:41:02;-5.20;99.90
23395;DHT22;11870;53.084;18.206;2023-03-01T03:43:30;-5.10;99.90
23395;DHT22;11870;53.084;18.206;2023-03-01T03:45:56;-5.00;99.90
23395;DHT22;11870;53.084;18.206;2023-03-01T03:48:23;-4.90;99.90
23395;DHT22;11870;53.084;18.206;2023-03-01T03:50:51;-4.90;99.90
23395;DHT22;11870;53.084;18.206;2023-03-01T03:53:18;-4.80;99.90
23395;DHT22;11870;53.084;18.206;2023-03-01T03:55:45;-4.80;99.90
23395;DHT22;11870;53.084;18.206;2023-03-01T03:58:15;-4.70;99.90
23395;DHT22;11870;53.084;18.206;2023-03-01T04:00:44;-4.80;99.90
23395;DHT22;11870;53.084;18.206;2023-03-01T04:03:11;-4.80;99.90
23395;DHT22;11870;53.084;18.206;2023-03-01T04:05:39;-4.70;99.90
23395;DHT22;11870;53.084;18.206;2023-03-01T04:08:05;-4.80;99.90
23395;DHT22;11870;53.084;18.206;2023-03-01T04:10:38;-4.80;99.90
23395;DHT22;11870;53.084;18.206;2023-03-01T04:13:05;-4.80;99.90
23395;DHT22;11870;53.084;18.206;2023-03-01T04:15:33;-4.80;99.90
23395;DHT22;11870;53.084;18.206;2023-03-01T04:17:59;-4.90;99.90
23395;DHT22;11870;53.084;18.206;2023-03-01T04:20:28;-4.90;99.90
23395;DHT22;11870;53.084;18.206;2023-03-01T04:23:14;-4.90;99.90
23395;DHT22;11870;53.084;18.206;2023-03-01T04:25:51;-4.80;99.90
23395;DHT22;11870;53.084;18.206;2023-03-01T04:28:28;-4.70;99.90
23395;DHT22;11870;53.084;18.206;2023-03-01T04:30:56;-4.70;99.90
23395;DHT22;11870;53.084;18.206;2023-03-01T04:33:23;-4.60;99.90
23395;DHT22;11870;53.084;18.206;2023-03-01T04:35:49;-4.30;99.90
23395;DHT22;11870;53.084;18.206;2023-03-01T04:38:16;-4.40;99.90
23395;DHT22;11870;53.084;18.206;2023-03-01T04:40:42;-4.40;99.90
23395;DHT22;11870;53.084;18.206;2023-03-01T04:43:10;-4.50;99.90
23395;DHT22;11870;53.084;18.206;2023-03-01T04:45:36;-4.50;99.90
23395;DHT22;11870;53.084;18.206;2023-03-01T04:48:03;-4.50;99.90
23395;DHT22;11870;53.084;18.206;2023-03-01T04:50:29;-4.50;99.90
23395;DHT22;11870;53.084;18.206;2023-03-01T04:52:55;-4.50;99.90
23395;DHT22;11870;53.084;18.206;2023-03-01T04:55:28;-4.60;99.90
23395;DHT22;11870;53.084;18.206;2023-03-01T04:57:54;-4.50;99.90
23395;DHT22;11870;53.084;18.206;2023-03-01T05:00:21;-4.60;99.90
23395;DHT22;11870;53.084;18.206;2023-03-01T05:02:56;-4.50;99.90
23395;DHT22;11870;53.084;18.206;2023-03-01T05:05:34;-4.40;99.90
23395;DHT22;11870;53.084;18.206;2023-03-01T05:08:04;-4.30;99.90
23395;DHT22;11870;53.084;18.206;2023-03-01T05:10:32;-4.30;99.90
23395;DHT22;11870;53.084;18.206;2023-03-01T05:12:59;-4.30;99.90
23395;DHT22;11870;53.084;18.206;2023-03-01T05:15:26;-4.30;99.90
23395;DHT22;11870;53.084;18.206;2023-03-01T05:17:54;-4.30;99.90
23395;DHT22;11870;53.084;18.206;2023-03-01T05:20:21;-4.40;99.90
23395;DHT22;11870;53.084;18.206;2023-03-01T05:22:55;-4.40;99.90
23395;DHT22;11870;53.084;18.206;2023-03-01T05:25:21;-4.50;99.90
23395;DHT22;11870;53.084;18.206;2023-03-01T05:27:48;-4.50;99.90
23395;DHT22;11870;53.084;18.206;2023-03-01T05:30:14;-4.60;99.90
23395;DHT22;11870;53.084;18.206;2023-03-01T05:32:42;-4.50;99.90
23395;DHT22;11870;53.084;18.206;2023-03-01T05:35:11;-4.50;99.90
23395;DHT22;11870;53.084;18.206;2023-03-01T05:37:43;-4.60;99.90
23395;DHT22;11870;53.084;18.206;2023-03-01T05:40:15;-4.60;99.90
23395;DHT22;11870;53.084;18.206;2023-03-01T05:42:45;-4.60;99.90
23395;DHT22;11870;53.084;18.206;2023-03-01T05:45:14;-4.60;99.90
23395;DHT22;11870;53.084;18.206;2023-03-01T05:47:41;-4.60;99.90
23395;DHT22;11870;53.084;18.206;2023-03-01T05:52:48;-4.50;99.90
23395;DHT22;11870;53.084;18.206;2023-03-01T05:55:19;-4.40;99.90
23395;DHT22;11870;53.084;18.206;2023-03-01T05:57:45;-4.40;99.90
23395;DHT22;11870;53.084;18.206;2023-03-01T06:00:13;-4.30;99.90
23395;DHT22;11870;53.084;18.206;2023-03-01T06:02:39;-4.20;99.90
23395;DHT22;11870;53.084;18.206;2023-03-01T06:05:07;-4.00;99.90
23395;DHT22;11870;53.084;18.206;2023-03-01T06:07:34;-3.90;99.90
23395;DHT22;11870;53.084;18.206;2023-03-01T06:10:01;-3.80;99.90
23395;DHT22;11870;53.084;18.206;2023-03-01T06:12:31;-3.50;99.90
23395;DHT22;11870;53.084;18.206;2023-03-01T06:14:57;-3.30;99.90
23395;DHT22;11870;53.084;18.206;2023-03-01T06:17:23;-3.10;99.90
23395;DHT22;11870;53.084;18.206;2023-03-01T06:19:49;-2.80;99.90
23395;DHT22;11870;53.084;18.206;2023-03-01T06:22:15;-2.50;99.90
23395;DHT22;11870;53.084;18.206;2023-03-01T06:24:41;-2.20;99.90
23395;DHT22;11870;53.084;18.206;2023-03-01T06:27:07;-1.80;99.90
23395;DHT22;11870;53.084;18.206;2023-03-01T06:29:33;-1.40;99.90
23395;DHT22;11870;53.084;18.206;2023-03-01T06:31:59;-1.10;99.90
23395;DHT22;11870;53.084;18.206;2023-03-01T06:34:25;-0.30;99.90
23395;DHT22;11870;53.084;18.206;2023-03-01T06:36:50;-0.30;99.90
23395;DHT22;11870;53.084;18.206;2023-03-01T06:39:16;0.20;99.90
23395;DHT22;11870;53.084;18.206;2023-03-01T06:41:44;0.70;99.90
23395;DHT22;11870;53.084;18.206;2023-03-01T06:44:10;1.10;99.90
23395;DHT22;11870;53.084;18.206;2023-03-01T06:46:36;1.50;99.90
23395;DHT22;11870;53.084;18.206;2023-03-01T06:49:02;2.00;99.90
23395;DHT22;11870;53.084;18.206;2023-03-01T06:51:33;2.40;99.90
23395;DHT22;11870;53.084;18.206;2023-03-01T06:53:59;2.90;99.90
23395;DHT22;11870;53.084;18.206;2023-03-01T06:56:24;3.20;99.90
23395;DHT22;11870;53.084;18.206;2023-03-01T06:58:50;3.70;99.90
23395;DHT22;11870;53.084;18.206;2023-03-01T07:01:16;4.00;99.90
23395;DHT22;11870;53.084;18.206;2023-03-01T07:03:42;4.30;99.90
23395;DHT22;11870;53.084;18.206;2023-03-01T07:06:10;4.60;99.90
23395;DHT22;11870;53.084;18.206;2023-03-01T07:08:36;5.10;99.90
23395;DHT22;11870;53.084;18.206;2023-03-01T07:11:01;5.80;99.90
23395;DHT22;11870;53.084;18.206;2023-03-01T07:13:29;6.50;99.90
23395;DHT22;11870;53.084;18.206;2023-03-01T07:15:55;7.10;99.90
23395;DHT22;11870;53.084;18.206;2023-03-01T07:18:21;7.90;99.90
23395;DHT22;11870;53.084;18.206;2023-03-01T07:20:47;8.40;99.30
23395;DHT22;11870;53.084;18.206;2023-03-01T07:23:13;9.10;90.40
23395;DHT22;11870;53.084;18.206;2023-03-01T07:25:39;9.70;81.90
23395;DHT22;11870;53.084;18.206;2023-03-01T07:28:05;10.20;70.60
23395;DHT22;11870;53.084;18.206;2023-03-01T07:30:31;10.90;65.40
23395;DHT22;11870;53.084;18.206;2023-03-01T07:32:58;11.80;61.60
23395;DHT22;11870;53.084;18.206;2023-03-01T07:35:25;12.60;56.20
23395;DHT22;11870;53.084;18.206;2023-03-01T07:37:52;13.30;51.90
23395;DHT22;11870;53.084;18.206;2023-03-01T07:40:19;13.40;48.10
23395;DHT22;11870;53.084;18.206;2023-03-01T07:42:45;14.10;46.80
23395;DHT22;11870;53.084;18.206;2023-03-01T07:45:11;15.10;45.90
23395;DHT22;11870;53.084;18.206;2023-03-01T07:47:39;15.30;43.60
23395;DHT22;11870;53.084;18.206;2023-03-01T07:50:05;16.20;41.20
23395;DHT22;11870;53.084;18.206;2023-03-01T07:52:32;16.50;40.10
23395;DHT22;11870;53.084;18.206;2023-03-01T07:54:57;16.70;38.70
23395;DHT22;11870;53.084;18.206;2023-03-01T07:57:23;16.60;37.20
23395;DHT22;11870;53.084;18.206;2023-03-01T07:59:49;17.00;38.00
23395;DHT22;11870;53.084;18.206;2023-03-01T08:02:16;17.20;37.20
23395;DHT22;11870;53.084;18.206;2023-03-01T08:04:42;17.60;35.10
23395;DHT22;11870;53.084;18.206;2023-03-01T08:07:08;18.20;34.80
23395;DHT22;11870;53.084;18.206;2023-03-01T08:09:35;18.30;34.00
23395;DHT22;11870;53.084;18.206;2023-03-01T08:12:02;18.90;33.90
23395;DHT22;11870;53.084;18.206;2023-03-01T08:14:31;18.80;32.20
23395;DHT22;11870;53.084;18.206;2023-03-01T08:16:57;19.00;33.20
23395;DHT22;11870;53.084;18.206;2023-03-01T08:19:23;19.40;32.10
23395;DHT22;11870;53.084;18.206;2023-03-01T08:21:49;19.40;31.40
23395;DHT22;11870;53.084;18.206;2023-03-01T08:24:15;19.10;31.40
23395;DHT22;11870;53.084;18.206;2023-03-01T08:26:41;19.20;31.30
23395;DHT22;11870;53.084;18.206;2023-03-01T08:29:07;18.90;31.50
23395;DHT22;11870;53.084;18.206;2023-03-01T08:31:36;18.50;31.90
23395;DHT22;11870;53.084;18.206;2023-03-01T08:34:06;18.30;33.00
23395;DHT22;11870;53.084;18.206;2023-03-01T08:36:36;18.30;33.20
23395;DHT22;11870;53.084;18.206;2023-03-01T08:39:03;18.40;32.30
23395;DHT22;11870;53.084;18.206;2023-03-01T08:41:29;18.00;33.20
23395;DHT22;11870;53.084;18.206;2023-03-01T08:43:55;18.20;33.40
23395;DHT22;11870;53.084;18.206;2023-03-01T08:46:32;18.90;33.00
23395;DHT22;11870;53.084;18.206;2023-03-01T08:48:58;19.00;32.80
23395;DHT22;11870;53.084;18.206;2023-03-01T08:51:25;18.90;31.70
23395;DHT22;11870;53.084;18.206;2023-03-01T08:53:52;19.50;31.50
23395;DHT22;11870;53.084;18.206;2023-03-01T08:56:18;20.00;30.50
23395;DHT22;11870;53.084;18.206;2023-03-01T08:58:48;20.20;30.00
23395;DHT22;11870;53.084;18.206;2023-03-01T09:01:18;21.00;30.00
23395;DHT22;11870;53.084;18.206;2023-03-01T09:03:44;21.70;29.20
23395;DHT22;11870;53.084;18.206;2023-03-01T09:06:11;21.80;28.40
23395;DHT22;11870;53.084;18.206;2023-03-01T09:08:39;22.40;28.80
23395;DHT22;11870;53.084;18.206;2023-03-01T09:11:08;22.90;28.00
23395;DHT22;11870;53.084;18.206;2023-03-01T09:13:34;22.70;27.70
23395;DHT22;11870;53.084;18.206;2023-03-01T09:16:02;23.00;27.70
23395;DHT22;11870;53.084;18.206;2023-03-01T09:18:29;23.10;27.40
23395;DHT22;11870;53.084;18.206;2023-03-01T09:21:15;23.40;26.80
23395;DHT22;11870;53.084;18.206;2023-03-01T09:23:45;23.70;27.20
23395;DHT22;11870;53.084;18.206;2023-03-01T09:26:18;23.60;26.60
23395;DHT22;11870;53.084;18.206;2023-03-01T09:28:49;23.70;26.40
23395;DHT22;11870;53.084;18.206;2023-03-01T09:31:17;23.70;26.00
23395;DHT22;11870;53.084;18.206;2023-03-01T09:33:46;23.80;26.30
23395;DHT22;11870;53.084;18.206;2023-03-01T09:36:18;24.20;26.00
23395;DHT22;11870;53.084;18.206;2023-03-01T09:38:46;24.00;25.80
23395;DHT22;11870;53.084;18.206;2023-03-01T09:44:31;23.80;26.40
23395;DHT22;11870;53.084;18.206;2023-03-01T09:46:59;23.60;26.80
23395;DHT22;11870;53.084;18.206;2023-03-01T09:49:28;23.60;27.30
23395;DHT22;11870;53.084;18.206;2023-03-01T09:52:13;24.10;26.70
23395;DHT22;11870;53.084;18.206;2023-03-01T09:54:45;23.80;26.90
23395;DHT22;11870;53.084;18.206;2023-03-01T09:57:37;23.30;27.20
23395;DHT22;11870;53.084;18.206;2023-03-01T10:06:01;23.50;27.80
23395;DHT22;11870;53.084;18.206;2023-03-01T10:08:48;23.40;27.80
23395;DHT22;11870;53.084;18.206;2023-03-01T10:11:25;23.80;27.60
23395;DHT22;11870;53.084;18.206;2023-03-01T10:19:19;25.40;26.20
23395;DHT22;11870;53.084;18.206;2023-03-01T10:21:46;25.20;25.90
23395;DHT22;11870;53.084;18.206;2023-03-01T10:24:16;24.60;26.20
23395;DHT22;11870;53.084;18.206;2023-03-01T10:26:51;24.80;26.30
23395;DHT22;11870;53.084;18.206;2023-03-01T10:29:39;25.10;25.60
23395;DHT22;11870;53.084;18.206;2023-03-01T10:32:09;24.80;26.40
23395;DHT22;11870;53.084;18.206;2023-03-01T10:34:37;24.10;26.50
23395;DHT22;11870;53.084;18.206;2023-03-01T10:37:29;24.50;26.60
23395;DHT22;11870;53.084;18.206;2023-03-01T10:40:09;24.60;26.50
23395;DHT22;11870;53.084;18.206;2023-03-01T10:42:38;24.10;27.10
23395;DHT22;11870;53.084;18.206;2023-03-01T10:45:35;23.00;27.60
23395;DHT22;11870;53.084;18.206;2023-03-01T10:50:34;20.60;30.30
23395;DHT22;11870;53.084;18.206;2023-03-01T10:53:03;19.30;32.60
23395;DHT22;11870;53.084;18.206;2023-03-01T10:55:38;18.40;34.90
23395;DHT22;11870;53.084;18.206;2023-03-01T10:58:11;17.30;37.00
23395;DHT22;11870;53.084;18.206;2023-03-01T11:00:53;16.90;39.20
23395;DHT22;11870;53.084;18.206;2023-03-01T11:03:25;15.70;40.80
23395;DHT22;11870;53.084;18.206;2023-03-01T11:06:01;15.10;42.30
23395;DHT22;11870;53.084;18.206;2023-03-01T11:08:41;14.70;44.30
23395;DHT22;11870;53.084;18.206;2023-03-01T11:11:33;14.40;45.10
23395;DHT22;11870;53.084;18.206;2023-03-01T11:14:16;14.00;46.20
23395;DHT22;11870;53.084;18.206;2023-03-01T11:16:45;13.70;47.10
23395;DHT22;11870;53.084;18.206;2023-03-01T11:22:04;13.00;49.60
23395;DHT22;11870;53.084;18.206;2023-03-01T11:24:36;12.80;50.50
23395;DHT22;11870;53.084;18.206;2023-03-01T11:27:19;12.70;50.50
23395;DHT22;11870;53.084;18.206;2023-03-01T11:32:20;12.60;51.40
23395;DHT22;11870;53.084;18.206;2023-03-01T11:34:57;12.30;51.60
23395;DHT22;11870;53.084;18.206;2023-03-01T11:37:44;12.30;52.50
23395;DHT22;11870;53.084;18.206;2023-03-01T11:40:26;12.20;52.70
23395;DHT22;11870;53.084;18.206;2023-03-01T11:45:33;11.90;53.10
23395;DHT22;11870;53.084;18.206;2023-03-01T11:50:47;11.60;54.40
23395;DHT22;11870;53.084;18.206;2023-03-01T11:53:34;11.50;53.70
23395;DHT22;11870;53.084;18.206;2023-03-01T11:56:43;11.40;54.30
23395;DHT22;11870;53.084;18.206;2023-03-01T11:59:25;11.30;53.70
23395;DHT22;11870;53.084;18.206;2023-03-01T12:05:06;11.00;54.20
23395;DHT22;11870;53.084;18.206;2023-03-01T12:18:11;10.90;56.00
23395;DHT22;11870;53.084;18.206;2023-03-01T12:20:46;10.90;55.80
23395;DHT22;11870;53.084;18.206;2023-03-01T12:26:24;10.80;56.70
23395;DHT22;11870;53.084;18.206;2023-03-01T12:39:57;10.60;60.30
23395;DHT22;11870;53.084;18.206;2023-03-01T12:42:48;10.60;58.60
23395;DHT22;11870;53.084;18.206;2023-03-01T12:51:03;10.40;60.50
23395;DHT22;11870;53.084;18.206;2023-03-01T12:53:34;10.90;61.90
23395;DHT22;11870;53.084;18.206;2023-03-01T12:56:10;10.40;62.20
23395;DHT22;11870;53.084;18.206;2023-03-01T13:05:06;10.00;67.20
23395;DHT22;11870;53.084;18.206;2023-03-01T13:07:44;10.00;68.00
23395;DHT22;11870;53.084;18.206;2023-03-01T13:10:17;10.80;69.40
23395;DHT22;11870;53.084;18.206;2023-03-01T13:13:01;10.00;72.20
23395;DHT22;11870;53.084;18.206;2023-03-01T13:15:33;9.90;71.70
23395;DHT22;11870;53.084;18.206;2023-03-01T13:26:16;10.20;80.00
23395;DHT22;11870;53.084;18.206;2023-03-01T13:28:51;9.60;80.80
23395;DHT22;11870;53.084;18.206;2023-03-01T13:47:16;9.50;89.60
23395;DHT22;11870;53.084;18.206;2023-03-01T13:49:59;10.40;90.10
23395;DHT22;11870;53.084;18.206;2023-03-01T13:52:35;9.50;90.30
23395;DHT22;11870;53.084;18.206;2023-03-01T13:57:43;9.40;92.10
23395;DHT22;11870;53.084;18.206;2023-03-01T14:00:34;9.40;92.30
23395;DHT22;11870;53.084;18.206;2023-03-01T14:05:31;9.30;92.70
23395;DHT22;11870;53.084;18.206;2023-03-01T14:07:57;9.30;92.60
23395;DHT22;11870;53.084;18.206;2023-03-01T14:10:29;10.40;92.90
23395;DHT22;11870;53.084;18.206;2023-03-01T14:13:01;9.30;93.10
23395;DHT22;11870;53.084;18.206;2023-03-01T14:15:36;10.30;93.10
23395;DHT22;11870;53.084;18.206;2023-03-01T14:18:18;9.30;92.80
23395;DHT22;11870;53.084;18.206;2023-03-01T14:20:46;9.30;93.60
23395;DHT22;11870;53.084;18.206;2023-03-01T14:23:23;9.30;93.70
23395;DHT22;11870;53.084;18.206;2023-03-01T14:25:55;9.20;94.80
23395;DHT22;11870;53.084;18.206;2023-03-01T14:28:32;9.30;94.60
23395;DHT22;11870;53.084;18.206;2023-03-01T14:31:00;9.20;94.20
23395;DHT22;11870;53.084;18.206;2023-03-01T14:33:32;9.20;94.40
23395;DHT22;11870;53.084;18.206;2023-03-01T14:40:59;9.00;95.60
23395;DHT22;11870;53.084;18.206;2023-03-01T14:43:29;9.30;96.70
23395;DHT22;11870;53.084;18.206;2023-03-01T14:45:55;8.90;97.10
23395;DHT22;11870;53.084;18.206;2023-03-01T14:48:22;8.90;97.70
23395;DHT22;11870;53.084;18.206;2023-03-01T14:50:48;8.80;98.30
23395;DHT22;11870;53.084;18.206;2023-03-01T14:53:19;8.80;98.90
23395;DHT22;11870;53.084;18.206;2023-03-01T14:55:56;8.80;99.10
23395;DHT22;11870;53.084;18.206;2023-03-01T14:58:26;8.80;99.50
23395;DHT22;11870;53.084;18.206;2023-03-01T15:00:57;8.70;99.90
23395;DHT22;11870;53.084;18.206;2023-03-01T15:03:40;8.70;99.90
23395;DHT22;11870;53.084;18.206;2023-03-01T15:06:07;8.60;99.90
23395;DHT22;11870;53.084;18.206;2023-03-01T15:08:35;8.60;99.90
23395;DHT22;11870;53.084;18.206;2023-03-01T15:11:23;8.50;99.90
23395;DHT22;11870;53.084;18.206;2023-03-01T15:13:51;8.40;99.90
23395;DHT22;11870;53.084;18.206;2023-03-01T15:16:31;8.30;99.90
23395;DHT22;11870;53.084;18.206;2023-03-01T15:19:04;8.30;99.90
23395;DHT22;11870;53.084;18.206;2023-03-01T15:21:34;8.10;99.90
23395;DHT22;11870;53.084;18.206;2023-03-01T15:24:17;8.10;99.90
23395;DHT22;11870;53.084;18.206;2023-03-01T15:27:05;8.00;99.90
23395;DHT22;11870;53.084;18.206;2023-03-01T15:29:34;7.90;99.90
23395;DHT22;11870;53.084;18.206;2023-03-01T15:32:33;7.80;99.90
23395;DHT22;11870;53.084;18.206;2023-03-01T15:35:01;7.70;99.90
23395;DHT22;11870;53.084;18.206;2023-03-01T15:37:47;7.50;99.90
23395;DHT22;11870;53.084;18.206;2023-03-01T15:40:26;7.40;99.90
23395;DHT22;11870;53.084;18.206;2023-03-01T15:42:59;7.30;99.90
23395;DHT22;11870;53.084;18.206;2023-03-01T15:45:27;7.30;99.90
23395;DHT22;11870;53.084;18.206;2023-03-01T15:50:34;7.10;99.90
23395;DHT22;11870;53.084;18.206;2023-03-01T15:53:10;7.00;99.90
23395;DHT22;11870;53.084;18.206;2023-03-01T15:55:37;6.80;99.90
23395;DHT22;11870;53.084;18.206;2023-03-01T15:58:06;6.60;99.90
23395;DHT22;11870;53.084;18.206;2023-03-01T16:00:35;6.50;99.90
23395;DHT22;11870;53.084;18.206;2023-03-01T16:03:01;6.30;99.90
23395;DHT22;11870;53.084;18.206;2023-03-01T16:05:29;6.10;99.90
23395;DHT22;11870;53.084;18.206;2023-03-01T16:07:56;5.90;99.90
23395;DHT22;11870;53.084;18.206;2023-03-01T16:10:22;5.90;99.90
23395;DHT22;11870;53.084;18.206;2023-03-01T16:12:50;5.70;99.90
23395;DHT22;11870;53.084;18.206;2023-03-01T16:15:23;5.60;99.90
23395;DHT22;11870;53.084;18.206;2023-03-01T16:17:50;5.50;99.90
23395;DHT22;11870;53.084;18.206;2023-03-01T16:20:16;5.30;99.90
23395;DHT22;11870;53.084;18.206;2023-03-01T16:22:43;5.20;99.90
23395;DHT22;11870;53.084;18.206;2023-03-01T16:25:11;4.90;99.90
23395;DHT22;11870;53.084;18.206;2023-03-01T16:27:38;4.80;99.90
23395;DHT22;11870;53.084;18.206;2023-03-01T16:30:06;4.50;99.90
23395;DHT22;11870;53.084;18.206;2023-03-01T16:32:32;4.30;99.90
23395;DHT22;11870;53.084;18.206;2023-03-01T16:34:58;4.10;99.90
23395;DHT22;11870;53.084;18.206;2023-03-01T16:37:23;3.90;99.90
23395;DHT22;11870;53.084;18.206;2023-03-01T16:39:49;3.70;99.90
23395;DHT22;11870;53.084;18.206;2023-03-01T16:42:19;3.60;99.90
23395;DHT22;11870;53.084;18.206;2023-03-01T16:44:45;3.40;99.90
23395;DHT22;11870;53.084;18.206;2023-03-01T16:47:11;3.30;99.90
23395;DHT22;11870;53.084;18.206;2023-03-01T16:49:37;3.20;99.90
23395;DHT22;11870;53.084;18.206;2023-03-01T16:52:03;3.00;99.90
23395;DHT22;11870;53.084;18.206;2023-03-01T16:54:29;2.80;99.90
23395;DHT22;11870;53.084;18.206;2023-03-01T16:56:55;2.70;99.90
23395;DHT22;11870;53.084;18.206;2023-03-01T16:59:21;2.60;99.90
23395;DHT22;11870;53.084;18.206;2023-03-01T17:01:47;2.50;99.90
23395;DHT22;11870;53.084;18.206;2023-03-01T17:04:13;2.30;99.90
23395;DHT22;11870;53.084;18.206;2023-03-01T17:06:39;2.20;99.90
23395;DHT22;11870;53.084;18.206;2023-03-01T17:09:05;2.20;99.90
23395;DHT22;11870;53.084;18.206;2023-03-01T17:11:31;2.10;99.90
23395;DHT22;11870;53.084;18.206;2023-03-01T17:13:57;1.90;99.90
23395;DHT22;11870;53.084;18.206;2023-03-01T17:16:22;1.80;99.90
23395;DHT22;11870;53.084;18.206;2023-03-01T17:18:49;1.80;99.90
23395;DHT22;11870;53.084;18.206;2023-03-01T17:21:15;1.60;99.90
23395;DHT22;11870;53.084;18.206;2023-03-01T17:23:43;1.50;99.90
23395;DHT22;11870;53.084;18.206;2023-03-01T17:26:10;1.40;99.90
23395;DHT22;11870;53.084;18.206;2023-03-01T17:28:36;1.30;99.90
23395;DHT22;11870;53.084;18.206;2023-03-01T17:31:04;1.30;99.90
23395;DHT22;11870;53.084;18.206;2023-03-01T17:33:31;1.10;99.90